Ulan Bator, Mongolia
Current Conditions -  °F | °C
As of 7:00 AM on Sunday 26 Oct 2014 (Local Time) from ZMUB Reporting Station
Clear Clear  
Wind Chill: -14°   Ceiling: Unl
Heat Index: -14°   Visibility: 6mi
Dew Point: -17°   Wind: 2mph
Humidity: 79%   Direction: NA
Pressure: 30.39"   Gusts: NA
Location:  47.92°N, 106.91°E
Report Text: ZMUB 252300Z VRB01MPS CAVOK M14/M17 Q1029 NOSIG RMK QFE663.2 74
Loading
Personal Weather Stations






























Interactive Weather Map New forecast layout! Learn more

10-Day Weather Forecast

Advertisements
Track Severe Weather on mobile